sensor_id;sensor_type;location;lat;lon;timestamp;temperature;humidity
64499;SHT31;51087;55.718;21.122;2023-04-08T00:01:23;9.35;85.40
64499;SHT31;51087;55.718;21.122;2023-04-08T00:03:48;9.34;85.60
64499;SHT31;51087;55.718;21.122;2023-04-08T00:06:14;9.35;85.50
64499;SHT31;51087;55.718;21.122;2023-04-08T00:08:40;9.41;85.47
64499;SHT31;51087;55.718;21.122;2023-04-08T00:11:05;9.39;85.60
64499;SHT31;51087;55.718;21.122;2023-04-08T00:13:31;9.39;85.65
64499;SHT31;51087;55.718;21.122;2023-04-08T00:15:56;9.42;85.67
64499;SHT31;51087;55.718;21.122;2023-04-08T00:18:25;9.44;85.66
64499;SHT31;51087;55.718;21.122;2023-04-08T00:20:51;9.48;85.63
64499;SHT31;51087;55.718;21.122;2023-04-08T00:23:16;9.44;85.76
64499;SHT31;51087;55.718;21.122;2023-04-08T00:25:43;9.47;85.91
64499;SHT31;51087;55.718;21.122;2023-04-08T00:28:09;9.47;85.96
64499;SHT31;51087;55.718;21.122;2023-04-08T00:30:34;9.49;85.98
64499;SHT31;51087;55.718;21.122;2023-04-08T00:33:00;9.48;86.03
64499;SHT31;51087;55.718;21.122;2023-04-08T00:35:26;9.49;86.08
64499;SHT31;51087;55.718;21.122;2023-04-08T00:37:51;9.51;86.11
64499;SHT31;51087;55.718;21.122;2023-04-08T00:40:17;9.55;86.11
64499;SHT31;51087;55.718;21.122;2023-04-08T00:42:42;9.51;86.18
64499;SHT31;51087;55.718;21.122;2023-04-08T00:45:08;9.51;86.29
64499;SHT31;51087;55.718;21.122;2023-04-08T00:47:35;9.51;86.36
64499;SHT31;51087;55.718;21.122;2023-04-08T00:50:00;9.55;86.35
64499;SHT31;51087;55.718;21.122;2023-04-08T00:52:26;9.54;86.41
64499;SHT31;51087;55.718;21.122;2023-04-08T00:54:51;9.59;86.39
64499;SHT31;51087;55.718;21.122;2023-04-08T00:57:17;9.56;86.47
64499;SHT31;51087;55.718;21.122;2023-04-08T00:59:42;9.55;86.52
64499;SHT31;51087;55.718;21.122;2023-04-08T01:02:15;9.58;86.44
64499;SHT31;51087;55.718;21.122;2023-04-08T01:07:31;9.61;86.55
64499;SHT31;51087;55.718;21.122;2023-04-08T01:10:02;9.65;86.45
64499;SHT31;51087;55.718;21.122;2023-04-08T01:12:29;9.65;86.40
64499;SHT31;51087;55.718;21.122;2023-04-08T01:15:06;9.69;86.37
64499;SHT31;51087;55.718;21.122;2023-04-08T01:17:33;9.72;86.29
64499;SHT31;51087;55.718;21.122;2023-04-08T01:20:01;9.68;86.49
64499;SHT31;51087;55.718;21.122;2023-04-08T01:22:36;9.69;86.52
64499;SHT31;51087;55.718;21.122;2023-04-08T01:25:09;9.61;86.88
64499;SHT31;51087;55.718;21.122;2023-04-08T01:27:37;9.55;87.20
64499;SHT31;51087;55.718;21.122;2023-04-08T01:30:05;9.56;87.40
64499;SHT31;51087;55.718;21.122;2023-04-08T01:32:33;9.49;87.72
64499;SHT31;51087;55.718;21.122;2023-04-08T01:34:59;9.52;87.56
64499;SHT31;51087;55.718;21.122;2023-04-08T01:37:27;9.59;87.49
64499;SHT31;51087;55.718;21.122;2023-04-08T01:39:54;9.56;87.52
64499;SHT31;51087;55.718;21.122;2023-04-08T01:42:21;9.55;87.70
64499;SHT31;51087;55.718;21.122;2023-04-08T01:44:49;9.61;87.54
64499;SHT31;51087;55.718;21.122;2023-04-08T01:47:15;9.55;87.76
64499;SHT31;51087;55.718;21.122;2023-04-08T01:49:42;9.56;87.87
64499;SHT31;51087;55.718;21.122;2023-04-08T01:52:08;9.56;87.84
64499;SHT31;51087;55.718;21.122;2023-04-08T01:54:34;9.66;87.63
64499;SHT31;51087;55.718;21.122;2023-04-08T01:57:01;9.62;87.58
64499;SHT31;51087;55.718;21.122;2023-04-08T01:59:30;9.62;87.59
64499;SHT31;51087;55.718;21.122;2023-04-08T02:01:59;9.59;87.74
64499;SHT31;51087;55.718;21.122;2023-04-08T02:04:26;9.62;87.50
64499;SHT31;51087;55.718;21.122;2023-04-08T02:06:51;9.62;87.54
64499;SHT31;51087;55.718;21.122;2023-04-08T02:09:17;9.61;87.66
64499;SHT31;51087;55.718;21.122;2023-04-08T02:11:42;9.61;87.68
64499;SHT31;51087;55.718;21.122;2023-04-08T02:14:07;9.63;87.55
64499;SHT31;51087;55.718;21.122;2023-04-08T02:16:39;9.68;87.48
64499;SHT31;51087;55.718;21.122;2023-04-08T02:19:11;9.66;87.52
64499;SHT31;51087;55.718;21.122;2023-04-08T02:21:45;9.66;87.43
64499;SHT31;51087;55.718;21.122;2023-04-08T02:24:12;9.68;87.51
64499;SHT31;51087;55.718;21.122;2023-04-08T02:26:38;9.73;87.43
64499;SHT31;51087;55.718;21.122;2023-04-08T02:29:04;9.72;87.51
64499;SHT31;51087;55.718;21.122;2023-04-08T02:31:32;9.68;87.58
64499;SHT31;51087;55.718;21.122;2023-04-08T02:33:58;9.69;87.66
64499;SHT31;51087;55.718;21.122;2023-04-08T02:36:24;9.73;87.59
64499;SHT31;51087;55.718;21.122;2023-04-08T02:38:50;9.83;87.16
64499;SHT31;51087;55.718;21.122;2023-04-08T02:41:16;9.86;86.88
64499;SHT31;51087;55.718;21.122;2023-04-08T02:43:42;9.79;87.03
64499;SHT31;51087;55.718;21.122;2023-04-08T02:46:08;9.83;86.97
64499;SHT31;51087;55.718;21.122;2023-04-08T02:48:35;9.81;87.08
64499;SHT31;51087;55.718;21.122;2023-04-08T02:51:00;9.73;87.16
64499;SHT31;51087;55.718;21.122;2023-04-08T02:53:26;9.78;87.27
64499;SHT31;51087;55.718;21.122;2023-04-08T02:55:51;9.79;87.18
64499;SHT31;51087;55.718;21.122;2023-04-08T02:58:16;9.79;87.21
64499;SHT31;51087;55.718;21.122;2023-04-08T03:00:42;9.71;87.43
64499;SHT31;51087;55.718;21.122;2023-04-08T03:03:07;9.69;87.49
64499;SHT31;51087;55.718;21.122;2023-04-08T03:05:33;9.69;87.61
64499;SHT31;51087;55.718;21.122;2023-04-08T03:07:59;9.63;87.78
64499;SHT31;51087;55.718;21.122;2023-04-08T03:10:24;9.63;87.77
64499;SHT31;51087;55.718;21.122;2023-04-08T03:12:50;9.55;88.08
64499;SHT31;51087;55.718;21.122;2023-04-08T03:15:15;9.51;88.30
64499;SHT31;51087;55.718;21.122;2023-04-08T03:17:40;9.48;88.54
64499;SHT31;51087;55.718;21.122;2023-04-08T03:20:07;9.39;88.77
64499;SHT31;51087;55.718;21.122;2023-04-08T03:22:33;9.31;89.00
64499;SHT31;51087;55.718;21.122;2023-04-08T03:24:58;9.27;89.31
64499;SHT31;51087;55.718;21.122;2023-04-08T03:27:24;9.20;89.56
64499;SHT31;51087;55.718;21.122;2023-04-08T03:29:49;9.16;89.83
64499;SHT31;51087;55.718;21.122;2023-04-08T03:32:15;9.10;89.93
64499;SHT31;51087;55.718;21.122;2023-04-08T03:34:40;9.10;90.05
64499;SHT31;51087;55.718;21.122;2023-04-08T03:37:06;9.10;90.09
64499;SHT31;51087;55.718;21.122;2023-04-08T03:39:32;9.06;90.16
64499;SHT31;51087;55.718;21.122;2023-04-08T03:41:57;9.01;90.35
64499;SHT31;51087;55.718;21.122;2023-04-08T03:44:25;9.01;90.37
64499;SHT31;51087;55.718;21.122;2023-04-08T03:46:50;9.01;90.45
64499;SHT31;51087;55.718;21.122;2023-04-08T03:49:15;9.00;90.44
64499;SHT31;51087;55.718;21.122;2023-04-08T03:51:41;9.03;90.25
64499;SHT31;51087;55.718;21.122;2023-04-08T03:54:06;9.03;90.36
64499;SHT31;51087;55.718;21.122;2023-04-08T03:56:32;8.99;90.45
64499;SHT31;51087;55.718;21.122;2023-04-08T03:58:57;9.04;90.39
64499;SHT31;51087;55.718;21.122;2023-04-08T04:01:22;9.01;90.38
64499;SHT31;51087;55.718;21.122;2023-04-08T04:03:48;9.06;90.28
64499;SHT31;51087;55.718;21.122;2023-04-08T04:06:13;9.09;90.26
64499;SHT31;51087;55.718;21.122;2023-04-08T04:08:38;9.06;90.21
64499;SHT31;51087;55.718;21.122;2023-04-08T04:11:04;9.09;90.24
64499;SHT31;51087;55.718;21.122;2023-04-08T04:13:30;9.14;89.88
64499;SHT31;51087;55.718;21.122;2023-04-08T04:15:55;9.17;89.81
64499;SHT31;51087;55.718;21.122;2023-04-08T04:18:21;9.13;89.90
64499;SHT31;51087;55.718;21.122;2023-04-08T04:20:47;9.13;89.97
64499;SHT31;51087;55.718;21.122;2023-04-08T04:23:12;9.13;89.91
64499;SHT31;51087;55.718;21.122;2023-04-08T04:25:40;9.06;90.09
64499;SHT31;51087;55.718;21.122;2023-04-08T04:28:05;9.00;90.42
64499;SHT31;51087;55.718;21.122;2023-04-08T04:30:32;9.00;90.38
64499;SHT31;51087;55.718;21.122;2023-04-08T04:32:57;8.99;90.54
64499;SHT31;51087;55.718;21.122;2023-04-08T04:35:23;8.97;90.49
64499;SHT31;51087;55.718;21.122;2023-04-08T04:37:48;8.93;90.64
64499;SHT31;51087;55.718;21.122;2023-04-08T04:40:16;8.94;90.63
64499;SHT31;51087;55.718;21.122;2023-04-08T04:42:41;8.94;90.74
64499;SHT31;51087;55.718;21.122;2023-04-08T04:45:07;8.97;90.75
64499;SHT31;51087;55.718;21.122;2023-04-08T04:47:33;9.00;90.66
64499;SHT31;51087;55.718;21.122;2023-04-08T04:49:59;8.99;90.68
64499;SHT31;51087;55.718;21.122;2023-04-08T04:52:24;9.03;90.58
64499;SHT31;51087;55.718;21.122;2023-04-08T04:54:50;9.06;90.66
64499;SHT31;51087;55.718;21.122;2023-04-08T04:57:15;9.07;90.63
64499;SHT31;51087;55.718;21.122;2023-04-08T04:59:41;9.11;90.87
64499;SHT31;51087;55.718;21.122;2023-04-08T05:02:06;9.14;91.68
64499;SHT31;51087;55.718;21.122;2023-04-08T05:04:31;9.17;92.21
64499;SHT31;51087;55.718;21.122;2023-04-08T05:07:00;9.18;93.13
64499;SHT31;51087;55.718;21.122;2023-04-08T05:09:25;9.24;93.58
64499;SHT31;51087;55.718;21.122;2023-04-08T05:11:51;9.18;94.41
64499;SHT31;51087;55.718;21.122;2023-04-08T05:14:16;9.14;95.27
64499;SHT31;51087;55.718;21.122;2023-04-08T05:16:41;9.18;95.32
64499;SHT31;51087;55.718;21.122;2023-04-08T05:19:07;9.11;96.14
64499;SHT31;51087;55.718;21.122;2023-04-08T05:21:32;9.10;96.51
64499;SHT31;51087;55.718;21.122;2023-04-08T05:23:58;9.11;96.64
64499;SHT31;51087;55.718;21.122;2023-04-08T05:26:23;9.11;96.79
64499;SHT31;51087;55.718;21.122;2023-04-08T05:28:49;9.09;97.20
64499;SHT31;51087;55.718;21.122;2023-04-08T05:31:18;9.09;97.36
64499;SHT31;51087;55.718;21.122;2023-04-08T05:33:44;9.14;97.33
64499;SHT31;51087;55.718;21.122;2023-04-08T05:36:10;9.13;97.77
64499;SHT31;51087;55.718;21.122;2023-04-08T05:38:36;9.16;98.08
64499;SHT31;51087;55.718;21.122;2023-04-08T05:41:02;9.18;98.00
64499;SHT31;51087;55.718;21.122;2023-04-08T05:43:27;9.26;98.23
64499;SHT31;51087;55.718;21.122;2023-04-08T05:45:53;9.37;97.86
64499;SHT31;51087;55.718;21.122;2023-04-08T05:48:18;9.45;97.75
64499;SHT31;51087;55.718;21.122;2023-04-08T05:50:43;9.61;97.47
64499;SHT31;51087;55.718;21.122;2023-04-08T05:53:09;9.75;97.12
64499;SHT31;51087;55.718;21.122;2023-04-08T05:55:35;9.86;96.82
64499;SHT31;51087;55.718;21.122;2023-04-08T05:58:00;10.09;96.18
64499;SHT31;51087;55.718;21.122;2023-04-08T06:00:26;10.21;95.52
64499;SHT31;51087;55.718;21.122;2023-04-08T06:02:51;10.42;95.22
64499;SHT31;51087;55.718;21.122;2023-04-08T06:05:17;10.55;94.17
64499;SHT31;51087;55.718;21.122;2023-04-08T06:07:43;10.71;93.72
64499;SHT31;51087;55.718;21.122;2023-04-08T06:10:09;10.64;92.57
64499;SHT31;51087;55.718;21.122;2023-04-08T06:12:35;10.75;92.42
64499;SHT31;51087;55.718;21.122;2023-04-08T06:15:03;10.82;91.54
64499;SHT31;51087;55.718;21.122;2023-04-08T06:17:28;10.54;90.12
64499;SHT31;51087;55.718;21.122;2023-04-08T06:19:54;10.68;89.23
64499;SHT31;51087;55.718;21.122;2023-04-08T06:22:19;10.55;88.85
64499;SHT31;51087;55.718;21.122;2023-04-08T06:24:46;10.78;89.12
64499;SHT31;51087;55.718;21.122;2023-04-08T06:27:12;10.93;88.65
64499;SHT31;51087;55.718;21.122;2023-04-08T06:29:37;10.91;87.91
64499;SHT31;51087;55.718;21.122;2023-04-08T06:32:03;10.95;87.41
64499;SHT31;51087;55.718;21.122;2023-04-08T06:34:30;10.97;87.46
64499;SHT31;51087;55.718;21.122;2023-04-08T06:36:55;10.86;87.98
64499;SHT31;51087;55.718;21.122;2023-04-08T06:39:21;10.96;87.40
64499;SHT31;51087;55.718;21.122;2023-04-08T06:41:47;10.96;87.16
64499;SHT31;51087;55.718;21.122;2023-04-08T06:44:12;11.06;87.48
64499;SHT31;51087;55.718;21.122;2023-04-08T06:46:37;10.78;87.35
64499;SHT31;51087;55.718;21.122;2023-04-08T06:49:03;10.95;87.33
64499;SHT31;51087;55.718;21.122;2023-04-08T06:51:31;11.14;86.24
64499;SHT31;51087;55.718;21.122;2023-04-08T06:53:57;11.00;86.71
64499;SHT31;51087;55.718;21.122;2023-04-08T06:56:22;11.06;86.59
64499;SHT31;51087;55.718;21.122;2023-04-08T06:58:50;10.97;86.22
64499;SHT31;51087;55.718;21.122;2023-04-08T07:01:16;10.71;86.74
64499;SHT31;51087;55.718;21.122;2023-04-08T07:03:41;10.64;87.66
64499;SHT31;51087;55.718;21.122;2023-04-08T07:06:07;10.57;88.08
64499;SHT31;51087;55.718;21.122;2023-04-08T07:08:32;10.55;88.04
64499;SHT31;51087;55.718;21.122;2023-04-08T07:10:58;10.59;87.79
64499;SHT31;51087;55.718;21.122;2023-04-08T07:13:23;10.59;87.64
64499;SHT31;51087;55.718;21.122;2023-04-08T07:15:49;10.34;88.04
64499;SHT31;51087;55.718;21.122;2023-04-08T07:18:14;10.40;88.40
64499;SHT31;51087;55.718;21.122;2023-04-08T07:20:39;10.29;88.26
64499;SHT31;51087;55.718;21.122;2023-04-08T07:23:06;10.29;88.74
64499;SHT31;51087;55.718;21.122;2023-04-08T07:25:32;10.33;88.82
64499;SHT31;51087;55.718;21.122;2023-04-08T07:27:58;10.13;89.53
64499;SHT31;51087;55.718;21.122;2023-04-08T07:30:24;10.13;90.34
64499;SHT31;51087;55.718;21.122;2023-04-08T07:32:49;10.02;90.51
64499;SHT31;51087;55.718;21.122;2023-04-08T07:35:15;10.24;90.24
64499;SHT31;51087;55.718;21.122;2023-04-08T07:37:49;10.42;89.61
64499;SHT31;51087;55.718;21.122;2023-04-08T07:40:16;10.38;89.16
64499;SHT31;51087;55.718;21.122;2023-04-08T07:42:41;10.24;89.60
64499;SHT31;51087;55.718;21.122;2023-04-08T07:45:07;10.06;91.41
64499;SHT31;51087;55.718;21.122;2023-04-08T07:47:33;9.99;91.90
64499;SHT31;51087;55.718;21.122;2023-04-08T07:49:58;10.09;91.58
64499;SHT31;51087;55.718;21.122;2023-04-08T07:52:24;10.21;91.29
64499;SHT31;51087;55.718;21.122;2023-04-08T07:54:50;10.09;91.90
64499;SHT31;51087;55.718;21.122;2023-04-08T07:57:15;10.11;92.26
64499;SHT31;51087;55.718;21.122;2023-04-08T07:59:41;10.03;92.05
64499;SHT31;51087;55.718;21.122;2023-04-08T08:02:06;10.00;92.35
64499;SHT31;51087;55.718;21.122;2023-04-08T08:04:32;9.92;92.53
64499;SHT31;51087;55.718;21.122;2023-04-08T08:06:57;9.83;92.97
64499;SHT31;51087;55.718;21.122;2023-04-08T08:09:22;9.82;93.50
64499;SHT31;51087;55.718;21.122;2023-04-08T08:11:48;9.58;94.22
64499;SHT31;51087;55.718;21.122;2023-04-08T08:14:13;9.65;93.86
64499;SHT31;51087;55.718;21.122;2023-04-08T08:16:39;9.49;94.78
64499;SHT31;51087;55.718;21.122;2023-04-08T08:19:05;9.54;94.68
64499;SHT31;51087;55.718;21.122;2023-04-08T08:21:35;9.47;94.69
64499;SHT31;51087;55.718;21.122;2023-04-08T08:24:01;9.21;96.02
64499;SHT31;51087;55.718;21.122;2023-04-08T08:26:26;9.18;95.96
64499;SHT31;51087;55.718;21.122;2023-04-08T08:28:53;9.30;95.81
64499;SHT31;51087;55.718;21.122;2023-04-08T08:31:18;9.34;95.95
64499;SHT31;51087;55.718;21.122;2023-04-08T08:33:44;9.59;94.75
64499;SHT31;51087;55.718;21.122;2023-04-08T08:36:10;9.65;94.31
64499;SHT31;51087;55.718;21.122;2023-04-08T08:38:36;9.56;94.66
64499;SHT31;51087;55.718;21.122;2023-04-08T08:41:01;9.54;94.42
64499;SHT31;51087;55.718;21.122;2023-04-08T08:43:28;9.71;94.13
64499;SHT31;51087;55.718;21.122;2023-04-08T08:45:53;9.62;93.15
64499;SHT31;51087;55.718;21.122;2023-04-08T08:48:19;9.48;94.05
64499;SHT31;51087;55.718;21.122;2023-04-08T08:50:45;9.63;92.87
64499;SHT31;51087;55.718;21.122;2023-04-08T08:53:10;9.51;93.41
64499;SHT31;51087;55.718;21.122;2023-04-08T08:55:36;9.55;93.81
64499;SHT31;51087;55.718;21.122;2023-04-08T08:58:04;9.66;93.78
64499;SHT31;51087;55.718;21.122;2023-04-08T09:00:33;9.92;93.25
64499;SHT31;51087;55.718;21.122;2023-04-08T09:05:48;10.02;92.18
64499;SHT31;51087;55.718;21.122;2023-04-08T09:10:53;10.48;91.14
64499;SHT31;51087;55.718;21.122;2023-04-08T09:13:21;10.71;90.38
64499;SHT31;51087;55.718;21.122;2023-04-08T09:16:13;11.02;89.42
64499;SHT31;51087;55.718;21.122;2023-04-08T09:18:40;11.33;88.69
64499;SHT31;51087;55.718;21.122;2023-04-08T09:21:11;11.50;87.50
64499;SHT31;51087;55.718;21.122;2023-04-08T09:23:50;11.10;87.57
64499;SHT31;51087;55.718;21.122;2023-04-08T09:26:18;11.47;87.22
64499;SHT31;51087;55.718;21.122;2023-04-08T09:31:29;11.81;86.73
64499;SHT31;51087;55.718;21.122;2023-04-08T09:33:57;11.88;85.61
64499;SHT31;51087;55.718;21.122;2023-04-08T09:36:23;11.82;85.30
64499;SHT31;51087;55.718;21.122;2023-04-08T09:38:48;11.71;85.83
64499;SHT31;51087;55.718;21.122;2023-04-08T09:41:17;11.12;88.63
64499;SHT31;51087;55.718;21.122;2023-04-08T09:43:46;10.82;89.37
64499;SHT31;51087;55.718;21.122;2023-04-08T09:46:15;10.79;89.41
64499;SHT31;51087;55.718;21.122;2023-04-08T09:48:48;10.71;90.33
64499;SHT31;51087;55.718;21.122;2023-04-08T09:51:18;10.89;90.10
64499;SHT31;51087;55.718;21.122;2023-04-08T09:53:47;10.85;89.84
64499;SHT31;51087;55.718;21.122;2023-04-08T09:56:16;10.67;89.80
64499;SHT31;51087;55.718;21.122;2023-04-08T09:58:50;10.61;90.39
64499;SHT31;51087;55.718;21.122;2023-04-08T10:01:23;10.45;91.23
64499;SHT31;51087;55.718;21.122;2023-04-08T10:03:54;10.13;91.89
64499;SHT31;51087;55.718;21.122;2023-04-08T10:06:27;9.83;93.47
64499;SHT31;51087;55.718;21.122;2023-04-08T10:08:54;9.73;94.27
64499;SHT31;51087;55.718;21.122;2023-04-08T10:11:20;9.89;93.97
64499;SHT31;51087;55.718;21.122;2023-04-08T10:13:45;9.76;95.14
64499;SHT31;51087;55.718;21.122;2023-04-08T10:16:22;9.47;97.09
64499;SHT31;51087;55.718;21.122;2023-04-08T10:18:49;9.17;97.40
64499;SHT31;51087;55.718;21.122;2023-04-08T10:21:36;9.35;96.67
64499;SHT31;51087;55.718;21.122;2023-04-08T10:24:06;9.48;95.99
64499;SHT31;51087;55.718;21.122;2023-04-08T10:26:36;9.39;94.20
64499;SHT31;51087;55.718;21.122;2023-04-08T10:31:45;9.81;93.69
64499;SHT31;51087;55.718;21.122;2023-04-08T10:34:19;9.96;93.15
64499;SHT31;51087;55.718;21.122;2023-04-08T10:36:45;9.55;93.31
64499;SHT31;51087;55.718;21.122;2023-04-08T10:39:12;9.90;93.94
64499;SHT31;51087;55.718;21.122;2023-04-08T10:41:45;10.34;92.61
64499;SHT31;51087;55.718;21.122;2023-04-08T10:44:22;10.49;90.16
64499;SHT31;51087;55.718;21.122;2023-04-08T10:46:48;10.29;91.52
64499;SHT31;51087;55.718;21.122;2023-04-08T10:51:02;10.33;90.70
64499;SHT31;51087;55.718;21.122;2023-04-08T10:56:09;10.16;89.69
64499;SHT31;51087;55.718;21.122;2023-04-08T10:58:47;10.61;89.26
64499;SHT31;51087;55.718;21.122;2023-04-08T11:01:13;10.96;87.55
64499;SHT31;51087;55.718;21.122;2023-04-08T11:03:38;10.92;89.17
64499;SHT31;51087;55.718;21.122;2023-04-08T11:06:03;11.14;87.22
64499;SHT31;51087;55.718;21.122;2023-04-08T11:08:30;11.22;86.22
64499;SHT31;51087;55.718;21.122;2023-04-08T11:10:58;11.51;84.72
64499;SHT31;51087;55.718;21.122;2023-04-08T11:13:26;11.58;83.90
64499;SHT31;51087;55.718;21.122;2023-04-08T11:15:52;10.95;85.81
64499;SHT31;51087;55.718;21.122;2023-04-08T11:18:18;11.24;85.97
64499;SHT31;51087;55.718;21.122;2023-04-08T11:20:43;11.52;85.22
64499;SHT31;51087;55.718;21.122;2023-04-08T11:23:13;11.65;83.66
64499;SHT31;51087;55.718;21.122;2023-04-08T11:25:40;11.95;82.81
64499;SHT31;51087;55.718;21.122;2023-04-08T11:28:06;11.82;82.48
64499;SHT31;51087;55.718;21.122;2023-04-08T11:30:31;11.13;84.52
64499;SHT31;51087;55.718;21.122;2023-04-08T11:32:58;11.00;84.79
64499;SHT31;51087;55.718;21.122;2023-04-08T11:35:27;11.26;83.91
64499;SHT31;51087;55.718;21.122;2023-04-08T11:37:54;11.07;84.27
64499;SHT31;51087;55.718;21.122;2023-04-08T11:40:20;10.92;85.39
64499;SHT31;51087;55.718;21.122;2023-04-08T11:42:50;10.83;85.70
64499;SHT31;51087;55.718;21.122;2023-04-08T11:45:17;10.64;86.35
64499;SHT31;51087;55.718;21.122;2023-04-08T11:47:46;10.42;87.83
64499;SHT31;51087;55.718;21.122;2023-04-08T11:50:21;10.57;86.65
64499;SHT31;51087;55.718;21.122;2023-04-08T11:52:48;10.54;87.15
64499;SHT31;51087;55.718;21.122;2023-04-08T11:55:25;10.37;87.94
64499;SHT31;51087;55.718;21.122;2023-04-08T11:57:51;10.16;89.18
64499;SHT31;51087;55.718;21.122;2023-04-08T12:00:18;10.23;87.73
64499;SHT31;51087;55.718;21.122;2023-04-08T12:02:44;10.07;88.65
64499;SHT31;51087;55.718;21.122;2023-04-08T12:05:10;10.02;87.95
64499;SHT31;51087;55.718;21.122;2023-04-08T12:07:36;9.72;88.57
64499;SHT31;51087;55.718;21.122;2023-04-08T12:10:01;9.83;88.75
64499;SHT31;51087;55.718;21.122;2023-04-08T12:12:27;9.73;88.68
64499;SHT31;51087;55.718;21.122;2023-04-08T12:14:52;9.83;88.53
64499;SHT31;51087;55.718;21.122;2023-04-08T12:17:18;9.71;88.74
64499;SHT31;51087;55.718;21.122;2023-04-08T12:19:43;9.73;88.87
64499;SHT31;51087;55.718;21.122;2023-04-08T12:22:08;9.81;88.83
64499;SHT31;51087;55.718;21.122;2023-04-08T12:24:34;9.41;91.25
64499;SHT31;51087;55.718;21.122;2023-04-08T12:27:00;10.02;88.71
64499;SHT31;51087;55.718;21.122;2023-04-08T12:29:26;10.11;87.13
64499;SHT31;51087;55.718;21.122;2023-04-08T12:31:52;10.09;87.71
64499;SHT31;51087;55.718;21.122;2023-04-08T12:34:17;9.73;89.11
64499;SHT31;51087;55.718;21.122;2023-04-08T12:36:43;9.61;90.01
64499;SHT31;51087;55.718;21.122;2023-04-08T12:39:09;9.96;88.93
64499;SHT31;51087;55.718;21.122;2023-04-08T12:41:34;10.17;88.65
64499;SHT31;51087;55.718;21.122;2023-04-08T12:44:00;10.29;87.34
64499;SHT31;51087;55.718;21.122;2023-04-08T12:46:25;9.75;89.77
64499;SHT31;51087;55.718;21.122;2023-04-08T12:48:50;10.17;88.58
64499;SHT31;51087;55.718;21.122;2023-04-08T12:51:16;10.03;89.59
64499;SHT31;51087;55.718;21.122;2023-04-08T12:53:42;10.33;88.62
64499;SHT31;51087;55.718;21.122;2023-04-08T12:56:07;10.23;87.92
64499;SHT31;51087;55.718;21.122;2023-04-08T12:58:33;10.20;88.19
64499;SHT31;51087;55.718;21.122;2023-04-08T13:00:59;10.13;87.72
64499;SHT31;51087;55.718;21.122;2023-04-08T13:03:24;10.09;88.17
64499;SHT31;51087;55.718;21.122;2023-04-08T13:05:51;9.79;88.59
64499;SHT31;51087;55.718;21.122;2023-04-08T13:08:16;9.63;89.03
64499;SHT31;51087;55.718;21.122;2023-04-08T13:10:42;9.69;88.51
64499;SHT31;51087;55.718;21.122;2023-04-08T13:13:07;9.89;88.08
64499;SHT31;51087;55.718;21.122;2023-04-08T13:15:33;9.66;88.80
64499;SHT31;51087;55.718;21.122;2023-04-08T13:17:58;9.85;87.85
64499;SHT31;51087;55.718;21.122;2023-04-08T13:20:24;10.09;86.90
64499;SHT31;51087;55.718;21.122;2023-04-08T13:22:53;10.29;85.56
64499;SHT31;51087;55.718;21.122;2023-04-08T13:25:19;10.57;84.69
64499;SHT31;51087;55.718;21.122;2023-04-08T13:27:44;10.62;83.78
64499;SHT31;51087;55.718;21.122;2023-04-08T13:30:10;10.37;84.77
64499;SHT31;51087;55.718;21.122;2023-04-08T13:32:36;10.62;83.56
64499;SHT31;51087;55.718;21.122;2023-04-08T13:35:01;10.72;82.98
64499;SHT31;51087;55.718;21.122;2023-04-08T13:37:27;10.59;83.32
64499;SHT31;51087;55.718;21.122;2023-04-08T13:39:53;10.54;83.02
64499;SHT31;51087;55.718;21.122;2023-04-08T13:42:18;10.09;83.72
64499;SHT31;51087;55.718;21.122;2023-04-08T13:44:44;9.94;85.47
64499;SHT31;51087;55.718;21.122;2023-04-08T13:47:09;10.11;85.35
64499;SHT31;51087;55.718;21.122;2023-04-08T13:49:35;10.13;84.54
64499;SHT31;51087;55.718;21.122;2023-04-08T13:52:01;10.00;84.39
64499;SHT31;51087;55.718;21.122;2023-04-08T13:54:26;9.86;85.52
64499;SHT31;51087;55.718;21.122;2023-04-08T13:56:52;10.18;84.74
64499;SHT31;51087;55.718;21.122;2023-04-08T13:59:17;10.73;83.00
64499;SHT31;51087;55.718;21.122;2023-04-08T14:01:42;11.37;81.42
64499;SHT31;51087;55.718;21.122;2023-04-08T14:04:08;11.79;78.75
64499;SHT31;51087;55.718;21.122;2023-04-08T14:06:33;12.91;76.19
64499;SHT31;51087;55.718;21.122;2023-04-08T14:09:00;13.48;72.98
64499;SHT31;51087;55.718;21.122;2023-04-08T14:11:25;12.82;73.88
64499;SHT31;51087;55.718;21.122;2023-04-08T14:13:52;13.68;72.75
64499;SHT31;51087;55.718;21.122;2023-04-08T14:16:18;13.47;72.81
64499;SHT31;51087;55.718;21.122;2023-04-08T14:18:43;12.98;74.93
64499;SHT31;51087;55.718;21.122;2023-04-08T14:21:09;11.51;79.41
64499;SHT31;51087;55.718;21.122;2023-04-08T14:23:35;11.75;79.10
64499;SHT31;51087;55.718;21.122;2023-04-08T14:26:00;11.72;79.98
64499;SHT31;51087;55.718;21.122;2023-04-08T14:28:26;12.05;79.05
64499;SHT31;51087;55.718;21.122;2023-04-08T14:30:51;12.25;77.73
64499;SHT31;51087;55.718;21.122;2023-04-08T14:33:17;12.30;76.98
64499;SHT31;51087;55.718;21.122;2023-04-08T14:35:42;12.20;76.76
64499;SHT31;51087;55.718;21.122;2023-04-08T14:38:08;12.13;77.75
64499;SHT31;51087;55.718;21.122;2023-04-08T14:40:34;11.64;78.90
64499;SHT31;51087;55.718;21.122;2023-04-08T14:43:00;11.19;80.39
64499;SHT31;51087;55.718;21.122;2023-04-08T14:45:25;10.91;80.39
64499;SHT31;51087;55.718;21.122;2023-04-08T14:47:51;10.65;82.04
64499;SHT31;51087;55.718;21.122;2023-04-08T14:50:16;10.61;81.82
64499;SHT31;51087;55.718;21.122;2023-04-08T14:52:42;10.09;82.95
64499;SHT31;51087;55.718;21.122;2023-04-08T14:55:09;10.40;82.26
64499;SHT31;51087;55.718;21.122;2023-04-08T14:57:35;10.49;81.92
64499;SHT31;51087;55.718;21.122;2023-04-08T15:00:00;9.96;84.35
64499;SHT31;51087;55.718;21.122;2023-04-08T15:02:26;9.90;83.65
64499;SHT31;51087;55.718;21.122;2023-04-08T15:04:51;10.02;84.15
64499;SHT31;51087;55.718;21.122;2023-04-08T15:07:16;9.39;84.74
64499;SHT31;51087;55.718;21.122;2023-04-08T15:09:42;9.06;86.82
64499;SHT31;51087;55.718;21.122;2023-04-08T15:12:07;9.39;86.30
64499;SHT31;51087;55.718;21.122;2023-04-08T15:14:33;9.55;85.45
64499;SHT31;51087;55.718;21.122;2023-04-08T15:16:58;9.41;86.10
64499;SHT31;51087;55.718;21.122;2023-04-08T15:19:24;8.90;87.49
64499;SHT31;51087;55.718;21.122;2023-04-08T15:21:50;8.96;87.42
64499;SHT31;51087;55.718;21.122;2023-04-08T15:24:15;9.18;86.55
64499;SHT31;51087;55.718;21.122;2023-04-08T15:26:40;9.07;87.02
64499;SHT31;51087;55.718;21.122;2023-04-08T15:29:06;9.14;87.10
64499;SHT31;51087;55.718;21.122;2023-04-08T15:31:32;9.27;86.63
64499;SHT31;51087;55.718;21.122;2023-04-08T15:33:57;9.27;86.43
64499;SHT31;51087;55.718;21.122;2023-04-08T15:36:25;9.24;86.78
64499;SHT31;51087;55.718;21.122;2023-04-08T15:38:51;9.23;86.98